aviador You're here:

KPGV Decoded Metar

PITT GREENVILLE in NC, USA
Report Time2018-02-25 23:35:00
UTC Time2018-02-25 23:48:01
Flight Rules vfr VFR
WindCalm
Visibility9999 m
Phenomena:N/A
Clouds:N/A
Expected CloudBase > 5,200 ft AGL from Temp-Dew spread
CeilingNone
Temp22°C (ISA +7)
Dew Point09°C (44% RH)
AAT21.8°C
QNH1018 hPa
Density Alt837 ft
Elevation26 ft
Report Wrong Elevation
Raw Report
METAR KPGV 252335Z AUTO 00000KT 10SM CLR 22/09 A3005 RMK AO2=

Extra information for KPGV:More info

Metar Taf Metar & Taf Last 4 Metars F.Rules Stats Wind Profile Meteogram Temp Stats Airport Information Weather charts Add Link Nearby VenuesMetar ALERT Operation Metar Decoded Social comments

AIRNAV info for KPGV